Time;durP1;ratioP1;P1;durP2;ratioP2;P2;SDS_P1;SDS_P2;PMS_P1;PMS_P2;Temp;Humidity;BMP_temperature;BMP_pressure;BME280_temperature;BME280_humidity;BME280_pressure;Samples;Min_cycle;Max_cycle;Signal;HPM_P1;HPM_P2
2022/08/16 00:00:33;;;;;;;3.17;2.60;;;27.00;58.70;;;;;;4477433;32;20102;-75
2022/08/16 00:02:59;;;;;;;4.75;2.70;;;27.00;58.70;;;;;;4477017;32;20422;-75
2022/08/16 00:05:26;;;;;;;3.97;2.88;;;27.00;58.70;;;;;;4477552;32;20096;-75
2022/08/16 00:07:53;;;;;;;3.47;2.85;;;27.00;58.70;;;;;;4463249;32;20065;-75
2022/08/16 00:10:21;;;;;;;3.97;2.85;;;27.00;58.70;;;;;;4477515;32;20069;-75
2022/08/16 00:12:47;;;;;;;3.78;3.15;;;27.00;58.70;;;;;;4476787;32;20492;-75
2022/08/16 00:15:32;;;;;;;4.57;2.75;;;27.00;58.70;;;;;;4477076;32;20066;-75
2022/08/16 00:17:59;;;;;;;7.40;2.90;;;27.00;58.70;;;;;;4477113;32;20074;-75
2022/08/16 00:20:26;;;;;;;3.72;2.70;;;27.00;58.80;;;;;;4476783;32;20096;-75
2022/08/16 00:22:52;;;;;;;4.82;3.00;;;27.00;58.80;;;;;;4477067;32;20692;-75
2022/08/16 00:25:21;;;;;;;4.05;2.80;;;27.00;58.90;;;;;;4477137;32;20097;-76
2022/08/16 00:27:47;;;;;;;5.57;2.90;;;27.00;58.90;;;;;;4476751;32;20073;-75
2022/08/16 00:30:14;;;;;;;6.57;3.47;;;27.00;58.90;;;;;;4462834;32;20073;-76
2022/08/16 00:32:46;;;;;;;3.55;2.95;;;27.00;58.90;;;;;;4476927;32;20113;-75
2022/08/16 00:35:19;;;;;;;3.58;3.00;;;27.00;58.90;;;;;;4476787;32;20077;-75
2022/08/16 00:37:45;;;;;;;7.03;3.13;;;27.00;58.90;;;;;;4476759;32;20196;-75
2022/08/16 00:40:20;;;;;;;5.32;3.03;;;27.00;59.00;;;;;;4476769;32;20235;-75
2022/08/16 00:42:50;;;;;;;4.13;2.53;;;27.00;58.90;;;;;;4477068;32;20198;-75
2022/08/16 00:45:34;;;;;;;4.60;3.00;;;27.00;59.00;;;;;;4476766;32;20087;-75
2022/08/16 00:48:04;;;;;;;4.32;2.90;;;27.00;58.90;;;;;;4476951;32;20223;-75
2022/08/16 00:50:33;;;;;;;4.32;2.53;;;26.90;58.90;;;;;;4462762;32;20127;-75
2022/08/16 00:52:59;;;;;;;4.07;2.85;;;26.90;58.90;;;;;;4476386;32;20546;-75
2022/08/16 00:55:25;;;;;;;3.33;2.60;;;27.00;59.00;;;;;;4476863;32;20226;-75
2022/08/16 00:57:55;;;;;;;3.90;2.90;;;26.90;58.90;;;;;;4462487;32;20510;-75
2022/08/16 01:00:26;;;;;;;6.47;2.75;;;27.00;59.00;;;;;;4476553;32;20183;-76
2022/08/16 01:02:54;;;;;;;5.38;2.55;;;26.90;58.90;;;;;;4477118;32;20096;-75
2022/08/16 01:05:19;;;;;;;3.15;2.47;;;26.90;58.90;;;;;;4476544;32;20244;-75
2022/08/16 01:07:45;;;;;;;3.83;2.55;;;27.00;59.00;;;;;;4476457;32;20469;-75
2022/08/16 01:10:11;;;;;;;3.92;2.67;;;26.90;58.90;;;;;;4476710;32;20065;-75
2022/08/16 01:12:37;;;;;;;5.03;2.50;;;26.90;59.00;;;;;;4476430;32;20073;-75
2022/08/16 01:15:04;;;;;;;3.35;2.53;;;26.90;59.00;;;;;;4476694;32;20162;-75
2022/08/16 01:17:32;;;;;;;2.65;2.30;;;26.90;59.00;;;;;;4476330;32;20128;-75
2022/08/16 01:20:01;;;;;;;3.28;2.20;;;26.90;59.00;;;;;;4476345;32;20073;-75
2022/08/16 01:22:46;;;;;;;3.03;2.33;;;26.90;59.00;;;;;;4476081;32;20088;-75
2022/08/16 01:25:13;;;;;;;;;;;26.90;59.00;;;;;;4477399;32;20069;-76
2022/08/16 01:27:47;;;;;;;5.22;2.60;;;26.90;59.00;;;;;;4462413;32;20367;-75
2022/08/16 01:30:16;;;;;;;3.45;2.45;;;26.90;59.00;;;;;;4476576;32;20093;-76
2022/08/16 01:32:43;;;;;;;2.83;2.50;;;26.80;59.00;;;;;;4462191;32;20070;-75
2022/08/16 01:35:31;;;;;;;3.85;2.85;;;26.80;59.00;;;;;;4476219;32;20223;-76
2022/08/16 01:38:20;;;;;;;4.38;2.53;;;26.90;60.00;;;;;;4476294;32;20403;-76
2022/08/16 01:40:49;;;;;;;2.97;2.65;;;26.90;59.00;;;;;;4476401;32;20486;-76
2022/08/16 01:43:15;;;;;;;2.40;2.20;;;26.90;59.10;;;;;;4476364;32;20090;-76
2022/08/16 01:45:41;;;;;;;4.78;2.67;;;26.90;59.10;;;;;;4476050;32;20074;-76
2022/08/16 01:48:07;;;;;;;2.42;2.22;;;26.90;59.10;;;;;;4476132;32;20081;-75
2022/08/16 01:50:34;;;;;;;2.33;2.13;;;26.90;59.10;;;;;;4476060;32;20088;-76
2022/08/16 01:53:00;;;;;;;3.58;2.30;;;26.80;59.00;;;;;;4476283;32;20125;-75
2022/08/16 01:55:26;;;;;;;3.10;2.33;;;26.80;59.00;;;;;;4461916;32;20155;-75
2022/08/16 01:57:52;;;;;;;4.20;2.40;;;26.80;59.00;;;;;;4461702;32;20524;-76
2022/08/16 02:00:18;;;;;;;3.20;2.63;;;26.80;59.00;;;;;;4461730;32;20066;-75
2022/08/16 02:02:44;;;;;;;3.00;2.60;;;26.80;59.00;;;;;;4475801;32;20089;-75
2022/08/16 02:05:11;;;;;;;4.10;2.60;;;26.80;59.00;;;;;;4475664;32;20121;-75
2022/08/16 02:07:37;;;;;;;2.65;2.20;;;26.80;59.00;;;;;;4475954;32;20081;-75
2022/08/16 02:10:08;;;;;;;2.85;2.45;;;26.80;59.10;;;;;;4475970;32;20136;-75
2022/08/16 02:12:34;;;;;;;2.95;2.63;;;26.80;59.10;;;;;;4476054;32;20074;-76
2022/08/16 02:15:00;;;;;;;2.85;2.40;;;26.80;59.10;;;;;;4475690;32;20113;-76
2022/08/16 02:17:26;;;;;;;3.25;2.40;;;26.80;59.10;;;;;;4476037;32;20072;-75
2022/08/16 02:19:53;;;;;;;3.58;2.60;;;26.80;59.10;;;;;;4475627;32;20219;-75
2022/08/16 02:22:22;;;;;;;3.05;2.75;;;26.80;59.10;;;;;;4476006;32;20100;-75
2022/08/16 02:24:49;;;;;;;2.78;2.33;;;26.80;59.10;;;;;;4476328;32;20521;-76
2022/08/16 02:27:16;;;;;;;2.63;2.33;;;26.80;59.10;;;;;;4476165;32;20200;-75
2022/08/16 02:29:43;;;;;;;2.40;2.10;;;26.80;59.10;;;;;;4475888;32;20097;-75
2022/08/16 02:32:12;;;;;;;3.50;2.45;;;26.70;59.10;;;;;;4475852;32;20096;-76
2022/08/16 02:34:38;;;;;;;2.40;2.20;;;26.80;59.10;;;;;;4476716;32;20069;-76
2022/08/16 02:37:03;;;;;;;2.58;2.35;;;26.80;59.10;;;;;;4478665;32;20182;-75
2022/08/16 02:39:29;;;;;;;3.08;2.60;;;26.80;59.10;;;;;;4478621;32;20066;-76
2022/08/16 02:41:55;;;;;;;2.67;2.47;;;26.70;60.00;;;;;;4478370;32;20384;-76
2022/08/16 02:44:22;;;;;;;2.92;2.42;;;26.80;59.10;;;;;;4478296;32;20073;-75
2022/08/16 02:46:48;;;;;;;3.83;2.70;;;26.70;59.10;;;;;;4478457;32;20096;-76
2022/08/16 02:49:15;;;;;;;3.00;2.30;;;26.70;59.10;;;;;;4478592;32;20077;-75
2022/08/16 02:51:42;;;;;;;2.65;2.45;;;26.70;59.00;;;;;;4478660;32;20450;-75
2022/08/16 02:54:09;;;;;;;5.38;2.30;;;26.70;59.10;;;;;;4478143;32;20077;-75
2022/08/16 02:56:35;;;;;;;3.25;2.75;;;26.70;59.10;;;;;;4478365;32;20139;-76
2022/08/16 02:59:02;;;;;;;2.55;2.30;;;26.70;59.10;;;;;;4478361;32;20093;-75
2022/08/16 03:01:31;;;;;;;2.95;2.40;;;26.70;59.10;;;;;;4464444;32;20089;-76
2022/08/16 03:04:00;;;;;;;2.90;2.42;;;26.70;59.10;;;;;;4478315;32;20081;-75
2022/08/16 03:06:27;;;;;;;3.17;2.40;;;26.70;59.10;;;;;;4478288;32;20166;-75
2022/08/16 03:08:53;;;;;;;2.83;2.50;;;26.70;59.10;;;;;;4478275;32;20147;-76
2022/08/16 03:11:19;;;;;;;2.53;2.30;;;26.70;59.10;;;;;;4478142;32;20192;-76
2022/08/16 03:13:47;;;;;;;2.88;2.40;;;26.70;59.10;;;;;;4477781;32;20417;-75
2022/08/16 03:16:16;;;;;;;2.90;2.40;;;26.70;59.10;;;;;;4478643;32;20069;-75
2022/08/16 03:18:42;;;;;;;2.65;2.40;;;26.70;59.20;;;;;;4478098;32;20129;-75
2022/08/16 03:21:12;;;;;;;2.85;2.63;;;26.70;59.20;;;;;;4477853;32;20085;-75
2022/08/16 03:23:38;;;;;;;4.97;2.10;;;26.60;59.10;;;;;;4477804;32;20081;-75
2022/08/16 03:26:05;;;;;;;2.53;2.33;;;26.60;59.10;;;;;;4478239;32;20100;-76
2022/08/16 03:28:31;;;;;;;2.75;2.20;;;26.60;59.10;;;;;;4463814;32;20062;-76
2022/08/16 03:30:58;;;;;;;3.53;2.30;;;26.60;59.10;;;;;;4478130;32;20081;-76
2022/08/16 03:33:24;;;;;;;2.67;2.47;;;26.70;59.30;;;;;;4463779;32;20239;-75
2022/08/16 03:35:51;;;;;;;2.92;2.20;;;26.70;59.30;;;;;;4478021;32;20123;-76
2022/08/16 03:38:18;;;;;;;2.92;2.50;;;26.60;59.10;;;;;;4477619;32;20066;-76
2022/08/16 03:40:44;;;;;;;2.58;2.38;;;26.60;59.60;;;;;;4477461;32;20427;-76
2022/08/16 03:43:11;;;;;;;4.25;2.72;;;26.60;59.20;;;;;;4477171;32;20484;-75
2022/08/16 03:45:39;;;;;;;2.70;2.50;;;26.60;59.20;;;;;;4476684;32;20073;-75
2022/08/16 03:48:06;;;;;;;2.90;2.55;;;26.60;59.20;;;;;;4477167;32;20084;-76
2022/08/16 03:50:34;;;;;;;2.72;2.47;;;26.60;59.20;;;;;;4477783;32;20222;-75
2022/08/16 03:53:03;;;;;;;2.30;2.10;;;26.60;59.30;;;;;;4477787;32;20093;-75
2022/08/16 03:55:29;;;;;;;2.60;2.40;;;26.60;59.30;;;;;;4477454;32;20194;-76
2022/08/16 03:57:55;;;;;;;2.58;2.38;;;26.60;59.30;;;;;;4477370;32;20179;-75
2022/08/16 04:00:27;;;;;;;2.40;2.20;;;26.60;59.30;;;;;;4477367;32;20085;-75
2022/08/16 04:02:55;;;;;;;2.63;2.25;;;26.60;59.20;;;;;;4477280;32;20078;-75
2022/08/16 04:05:21;;;;;;;2.50;2.30;;;26.60;59.30;;;;;;4477278;32;20092;-75
2022/08/16 04:07:47;;;;;;;3.55;2.35;;;26.60;59.20;;;;;;4477295;32;20141;-75
2022/08/16 04:10:14;;;;;;;2.38;2.17;;;26.60;59.30;;;;;;4477187;32;20077;-75
2022/08/16 04:12:40;;;;;;;6.00;2.35;;;26.50;59.30;;;;;;4477174;32;20096;-75
2022/08/16 04:15:09;;;;;;;2.58;2.28;;;26.60;59.30;;;;;;4477179;32;20081;-75
2022/08/16 04:17:35;;;;;;;2.63;2.42;;;26.60;59.30;;;;;;4477506;32;20135;-75
2022/08/16 04:20:06;;;;;;;2.58;2.38;;;26.50;59.20;;;;;;4477036;32;20100;-75
2022/08/16 04:22:32;;;;;;;3.25;2.33;;;26.50;59.20;;;;;;4477112;32;20088;-76
2022/08/16 04:24:59;;;;;;;2.60;2.20;;;26.50;59.30;;;;;;4476748;32;20178;-76
2022/08/16 04:27:26;;;;;;;2.60;2.20;;;26.60;59.30;;;;;;4477077;32;20089;-75
2022/08/16 04:29:52;;;;;;;2.67;2.10;;;26.50;59.30;;;;;;4477149;32;20089;-75
2022/08/16 04:32:19;;;;;;;2.38;2.10;;;26.50;59.30;;;;;;4476667;32;20668;-75
2022/08/16 04:34:45;;;;;;;2.53;2.33;;;26.50;59.30;;;;;;4476884;32;20085;-75
2022/08/16 04:37:11;;;;;;;2.22;2.03;;;26.50;59.30;;;;;;4477117;32;20105;-75
2022/08/16 04:39:37;;;;;;;2.97;2.38;;;26.50;59.30;;;;;;4476814;32;20070;-76
2022/08/16 04:42:04;;;;;;;3.00;2.28;;;26.50;59.30;;;;;;4476759;32;20088;-75
2022/08/16 04:44:30;;;;;;;2.58;1.95;;;26.50;59.30;;;;;;4476419;32;20093;-75
2022/08/16 04:46:56;;;;;;;2.17;1.98;;;26.50;59.30;;;;;;4476499;32;20073;-76
2022/08/16 04:49:23;;;;;;;2.60;2.40;;;26.50;59.30;;;;;;4449750;32;20506;-76
2022/08/16 04:51:50;;;;;;;2.17;1.98;;;26.50;59.30;;;;;;4476357;32;20074;-75
2022/08/16 04:54:16;;;;;;;2.58;2.20;;;26.50;59.30;;;;;;4462364;32;20179;-75
2022/08/16 04:56:42;;;;;;;2.35;2.15;;;26.50;59.30;;;;;;4476481;32;20069;-75
2022/08/16 04:59:08;;;;;;;2.28;2.08;;;26.50;59.30;;;;;;4476363;32;20218;-75
2022/08/16 05:01:35;;;;;;;2.65;2.45;;;26.50;59.30;;;;;;4476258;32;20141;-76
2022/08/16 05:04:01;;;;;;;2.53;2.33;;;26.40;59.30;;;;;;4476516;32;20101;-76
2022/08/16 05:06:28;;;;;;;2.75;2.30;;;26.50;59.40;;;;;;4476474;32;20082;-76
2022/08/16 05:08:54;;;;;;;2.53;2.10;;;26.50;59.40;;;;;;4476593;32;20093;-76
2022/08/16 05:11:21;;;;;;;2.85;2.35;;;26.40;59.30;;;;;;4476352;32;20176;-76
2022/08/16 05:13:48;;;;;;;3.72;2.20;;;26.40;59.30;;;;;;4476077;32;20129;-76
2022/08/16 05:16:27;;;;;;;2.33;2.13;;;26.40;59.30;;;;;;4476396;32;20074;-76
2022/08/16 05:18:55;;;;;;;2.50;2.30;;;26.50;59.30;;;;;;4476367;32;20150;-76
2022/08/16 05:21:21;;;;;;;2.20;2.00;;;26.40;59.30;;;;;;4476295;32;20567;-76
2022/08/16 05:23:49;;;;;;;2.63;2.40;;;26.40;59.30;;;;;;4476563;32;20637;-76
2022/08/16 05:26:14;;;;;;;2.83;2.25;;;26.40;59.30;;;;;;4476232;32;20081;-76
2022/08/16 05:28:41;;;;;;;4.47;2.30;;;26.40;59.30;;;;;;4475952;32;20131;-76
2022/08/16 05:31:07;;;;;;;2.65;2.00;;;26.40;59.30;;;;;;4476237;32;20073;-76
2022/08/16 05:33:32;;;;;;;3.10;2.47;;;26.40;59.30;;;;;;4475976;32;20219;-76
2022/08/16 05:35:58;;;;;;;3.10;2.28;;;26.40;59.30;;;;;;4476290;32;20154;-76
2022/08/16 05:38:26;;;;;;;3.03;2.40;;;26.40;59.30;;;;;;4476035;32;20078;-76
2022/08/16 05:40:59;;;;;;;2.65;2.20;;;26.40;59.30;;;;;;4461804;32;20170;-75
2022/08/16 05:43:26;;;;;;;3.40;2.60;;;26.40;59.30;;;;;;4475954;32;20073;-75
2022/08/16 05:45:53;;;;;;;2.97;2.63;;;26.40;59.30;;;;;;4476383;32;20482;-75
2022/08/16 05:48:19;;;;;;;8.95;5.07;;;26.40;59.40;;;;;;4476049;32;20085;-74
2022/08/16 05:50:45;;;;;;;6.97;6.07;;;26.40;59.40;;;;;;4476233;32;20077;-75
2022/08/16 05:53:11;;;;;;;11.48;7.38;;;26.40;59.20;;;;;;4476049;32;20094;-75
2022/08/16 05:55:37;;;;;;;8.20;6.63;;;26.30;59.10;;;;;;4475989;32;20076;-75
2022/08/16 05:58:03;;;;;;;12.52;8.70;;;26.40;59.20;;;;;;4461550;32;20070;-75
2022/08/16 06:00:30;;;;;;;10.55;9.23;;;26.30;59.20;;;;;;4475922;32;20097;-75
2022/08/16 06:02:56;;;;;;;13.10;9.38;;;26.30;59.30;;;;;;4475711;32;20099;-75
2022/08/16 06:05:23;;;;;;;11.40;9.63;;;26.30;59.40;;;;;;4476182;32;20104;-75
2022/08/16 06:07:50;;;;;;;15.73;9.73;;;26.30;59.60;;;;;;4475973;32;20077;-75
2022/08/16 06:10:16;;;;;;;14.50;10.23;;;26.30;59.70;;;;;;4477411;32;20077;-76
2022/08/16 06:12:42;;;;;;;12.38;10.13;;;26.30;59.70;;;;;;4478975;32;20078;-76
2022/08/16 06:15:17;;;;;;;14.52;9.73;;;26.30;59.70;;;;;;4464877;32;20479;-75
2022/08/16 06:17:43;;;;;;;13.75;9.55;;;26.30;59.90;;;;;;4479032;32;20159;-76
2022/08/16 06:20:24;;;;;;;13.80;10.45;;;26.30;59.90;;;;;;4478804;32;20073;-75
2022/08/16 06:22:54;;;;;;;12.32;10.32;;;26.30;59.90;;;;;;4478963;32;20530;-75
2022/08/16 06:25:22;;;;;;;15.18;10.57;;;26.30;60.10;;;;;;4479155;32;20124;-75
2022/08/16 06:27:48;;;;;;;13.65;10.07;;;26.30;60.10;;;;;;4478976;32;20077;-75
2022/08/16 06:30:15;;;;;;;11.77;8.75;;;26.30;60.20;;;;;;4478890;32;20227;-75
2022/08/16 06:32:40;;;;;;;11.63;9.82;;;26.30;60.30;;;;;;4464651;32;20119;-74
2022/08/16 06:35:07;;;;;;;12.95;10.15;;;26.30;60.50;;;;;;4478693;32;20081;-75
2022/08/16 06:37:32;;;;;;;11.80;9.40;;;26.30;60.60;;;;;;4478287;32;20136;-76
2022/08/16 06:39:58;;;;;;;12.93;9.65;;;26.30;60.80;;;;;;4478389;32;20081;-76
2022/08/16 06:42:24;;;;;;;11.68;9.48;;;26.30;60.90;;;;;;4478226;32;20494;-76
2022/08/16 06:44:50;;;;;;;14.27;10.40;;;26.30;60.80;;;;;;4464136;32;20079;-77
2022/08/16 06:47:16;;;;;;;12.93;8.30;;;26.30;60.60;;;;;;4478816;32;20100;-77
2022/08/16 06:49:42;;;;;;;12.38;8.55;;;26.30;60.50;;;;;;4478361;32;20078;-77
2022/08/16 06:52:07;;;;;;;11.52;9.32;;;26.30;60.50;;;;;;4478415;32;20395;-76
2022/08/16 06:54:34;;;;;;;11.95;10.02;;;26.40;60.40;;;;;;4478346;32;20085;-76
2022/08/16 06:57:00;;;;;;;11.60;9.50;;;26.30;60.10;;;;;;4478307;32;20091;-74
2022/08/16 06:59:26;;;;;;;11.43;8.95;;;26.30;59.90;;;;;;4464152;32;20376;-74
2022/08/16 07:01:53;;;;;;;11.52;8.65;;;26.30;60.00;;;;;;4478453;32;20081;-75
2022/08/16 07:04:19;;;;;;;12.43;9.68;;;26.30;60.00;;;;;;4478003;32;20085;-74
2022/08/16 07:06:45;;;;;;;11.27;8.75;;;26.30;60.00;;;;;;4478147;32;20093;-74
2022/08/16 07:09:12;;;;;;;10.48;8.35;;;26.30;59.80;;;;;;4478128;32;20553;-68
2022/08/16 07:11:38;;;;;;;10.55;7.30;;;26.30;59.70;;;;;;4477782;32;20089;-68
2022/08/16 07:14:03;;;;;;;9.15;7.55;;;26.30;59.60;;;;;;4478011;32;20058;-71
2022/08/16 07:16:29;;;;;;;10.68;7.10;;;26.40;59.70;;;;;;4477953;32;20146;-71
2022/08/16 07:18:56;;;;;;;9.80;6.65;;;26.40;59.70;;;;;;4478217;32;20214;-72
2022/08/16 07:21:22;;;;;;;7.47;6.25;;;26.40;59.70;;;;;;4477702;32;20077;-72
2022/08/16 07:23:48;;;;;;;9.13;6.60;;;26.40;59.60;;;;;;4477928;32;20073;-72
2022/08/16 07:26:18;;;;;;;10.40;5.55;;;26.40;59.50;;;;;;4477840;32;20490;-72
2022/08/16 07:28:44;;;;;;;5.60;5.10;;;26.50;59.50;;;;;;4478369;32;20498;-72
2022/08/16 07:31:11;;;;;;;8.05;5.75;;;26.50;59.50;;;;;;4477979;32;20127;-74
2022/08/16 07:33:37;;;;;;;7.10;5.32;;;26.50;59.40;;;;;;4463706;32;20402;-72
2022/08/16 07:36:05;;;;;;;8.55;5.20;;;26.60;59.40;;;;;;4477990;32;20066;-72
2022/08/16 07:38:30;;;;;;;6.68;4.82;;;26.60;59.40;;;;;;4477860;32;20719;-71
2022/08/16 07:40:56;;;;;;;7.07;5.60;;;26.60;59.30;;;;;;4463257;32;20069;-72
2022/08/16 07:43:24;;;;;;;6.45;5.30;;;26.60;59.30;;;;;;4477487;32;20077;-72
2022/08/16 07:45:50;;;;;;;7.32;4.90;;;26.60;59.30;;;;;;4477453;32;20089;-72
2022/08/16 07:48:16;;;;;;;9.43;5.60;;;26.70;59.30;;;;;;4477526;32;20092;-72
2022/08/16 07:50:43;;;;;;;8.38;4.80;;;26.70;59.30;;;;;;4477581;32;20179;-72
2022/08/16 07:53:10;;;;;;;5.32;4.82;;;26.70;59.30;;;;;;4477855;32;20088;-72
2022/08/16 07:55:36;;;;;;;8.18;5.03;;;26.70;59.30;;;;;;4463183;32;20088;-71
2022/08/16 07:58:03;;;;;;;8.50;4.60;;;26.70;59.30;;;;;;4477637;32;20081;-73
2022/08/16 08:00:30;;;;;;;6.22;4.55;;;26.80;59.40;;;;;;4477376;32;20084;-71
2022/08/16 08:02:56;;;;;;;6.20;4.78;;;26.70;59.30;;;;;;4477388;32;20096;-71
2022/08/16 08:05:23;;;;;;;5.40;4.65;;;26.80;59.30;;;;;;4477079;32;20124;-71
2022/08/16 08:07:51;;;;;;;7.65;4.38;;;26.80;59.30;;;;;;4477471;32;20077;-71
2022/08/16 08:10:18;;;;;;;5.85;4.18;;;26.80;59.30;;;;;;4476901;32;20132;-71
2022/08/16 08:12:47;;;;;;;5.28;4.45;;;26.80;59.30;;;;;;4477346;32;20096;-72
2022/08/16 08:15:14;;;;;;;5.00;4.50;;;26.80;59.30;;;;;;4477084;32;20091;-72
2022/08/16 08:17:40;;;;;;;5.07;4.57;;;26.80;59.30;;;;;;4477116;32;20204;-72
2022/08/16 08:20:13;;;;;;;6.38;5.03;;;26.80;59.30;;;;;;4477262;32;20125;-72
2022/08/16 08:22:39;;;;;;;6.60;4.60;;;26.80;59.30;;;;;;4477287;32;20077;-72
2022/08/16 08:25:06;;;;;;;4.68;4.18;;;26.80;59.30;;;;;;4476940;32;20155;-71
2022/08/16 08:27:32;;;;;;;4.85;4.35;;;26.80;59.30;;;;;;4476931;32;20085;-71
2022/08/16 08:29:58;;;;;;;5.28;4.20;;;26.90;59.40;;;;;;4477212;32;20505;-71
2022/08/16 08:32:27;;;;;;;4.72;4.10;;;26.80;59.30;;;;;;4476166;32;20093;-71
2022/08/16 08:34:54;;;;;;;5.72;4.10;;;26.90;59.40;;;;;;4476813;32;20430;-71
2022/08/16 08:37:21;;;;;;;4.68;4.28;;;26.90;59.40;;;;;;4477077;32;20073;-71
2022/08/16 08:39:47;;;;;;;4.70;4.10;;;26.90;59.30;;;;;;4476423;32;20089;-71
2022/08/16 08:42:14;;;;;;;6.75;4.32;;;26.90;59.40;;;;;;4476653;32;20235;-71
2022/08/16 08:44:40;;;;;;;4.10;3.80;;;26.90;59.30;;;;;;4476435;32;20073;-72
2022/08/16 08:47:06;;;;;;;4.78;4.30;;;26.90;59.30;;;;;;4476675;32;20503;-71
2022/08/16 08:49:34;;;;;;;4.47;4.07;;;26.90;59.40;;;;;;4476861;32;20082;-71
2022/08/16 08:52:01;;;;;;;5.10;4.60;;;26.90;59.40;;;;;;4476320;32;20117;-72
2022/08/16 08:54:27;;;;;;;5.85;4.53;;;26.90;59.40;;;;;;4476624;32;20448;-72
2022/08/16 08:56:53;;;;;;;3.75;3.45;;;27.00;59.40;;;;;;4476259;32;20089;-72
2022/08/16 08:59:19;;;;;;;5.05;4.55;;;26.90;59.30;;;;;;4476678;32;20095;-71
2022/08/16 09:01:46;;;;;;;4.30;3.90;;;26.90;59.30;;;;;;4476478;32;20138;-72
2022/08/16 09:04:12;;;;;;;6.57;4.22;;;26.90;59.30;;;;;;4476193;32;20090;-71
2022/08/16 09:06:40;;;;;;;4.50;4.00;;;26.90;59.30;;;;;;4476426;32;20174;-72
2022/08/16 09:09:08;;;;;;;4.50;4.10;;;27.00;59.30;;;;;;4476399;32;20097;-71
2022/08/16 09:11:36;;;;;;;6.78;4.28;;;27.00;59.30;;;;;;4476372;32;20081;-71
2022/08/16 09:14:03;;;;;;;4.70;4.28;;;27.00;59.30;;;;;;4476489;32;20573;-71
2022/08/16 09:16:31;;;;;;;4.65;4.25;;;27.00;59.40;;;;;;4476307;32;20093;-71
2022/08/16 09:18:58;;;;;;;5.38;3.97;;;27.00;59.30;;;;;;4475997;32;20135;-71
2022/08/16 09:21:24;;;;;;;5.18;3.80;;;27.00;59.40;;;;;;4476327;32;20125;-71
2022/08/16 09:23:49;;;;;;;4.00;3.53;;;27.00;59.30;;;;;;4476414;32;20187;-71
2022/08/16 09:26:16;;;;;;;4.38;3.90;;;27.00;59.40;;;;;;4476178;32;20528;-72
2022/08/16 09:28:44;;;;;;;4.43;3.90;;;27.00;59.40;;;;;;4476465;32;20461;-71
2022/08/16 09:31:12;;;;;;;3.78;3.47;;;27.00;59.40;;;;;;4475980;32;20073;-71
2022/08/16 09:33:40;;;;;;;4.55;4.15;;;27.00;59.40;;;;;;4462142;32;20096;-72
2022/08/16 09:36:08;;;;;;;5.30;4.13;;;27.00;59.40;;;;;;4476387;32;20069;-71
2022/08/16 09:38:34;;;;;;;4.35;3.95;;;27.00;59.40;;;;;;4476031;32;20100;-71
2022/08/16 09:41:04;;;;;;;4.40;4.00;;;27.00;59.40;;;;;;4476098;32;20073;-71
2022/08/16 09:43:31;;;;;;;4.47;4.00;;;27.00;59.30;;;;;;4476327;32;20503;-71
2022/08/16 09:45:57;;;;;;;6.35;4.00;;;27.00;59.30;;;;;;4478734;32;20139;-71
2022/08/16 09:48:24;;;;;;;4.30;3.83;;;27.00;59.40;;;;;;4479401;32;20207;-71
2022/08/16 09:50:50;;;;;;;4.30;3.90;;;27.00;59.40;;;;;;4479046;32;20088;-71
2022/08/16 09:53:21;;;;;;;4.40;4.00;;;27.00;59.40;;;;;;4479452;32;20088;-71
2022/08/16 09:55:50;;;;;;;4.03;3.63;;;27.00;59.40;;;;;;4479334;32;20644;-71
2022/08/16 09:58:19;;;;;;;4.45;4.05;;;27.00;59.40;;;;;;4478893;32;20095;-72
2022/08/16 10:00:44;;;;;;;4.05;3.67;;;27.00;59.40;;;;;;4479225;32;20430;-71
2022/08/16 10:03:10;;;;;;;5.05;3.60;;;27.00;59.40;;;;;;4479028;32;20479;-73
2022/08/16 10:05:36;;;;;;;3.75;3.40;;;27.10;59.40;;;;;;4478769;32;20489;-72
2022/08/16 10:08:04;;;;;;;4.97;3.58;;;27.00;59.40;;;;;;4464989;32;20514;-72
2022/08/16 10:10:31;;;;;;;6.63;4.03;;;27.00;59.30;;;;;;4478569;32;20214;-70
2022/08/16 10:13:13;;;;;;;6.35;3.65;;;27.00;59.40;;;;;;4478805;32;20081;-71
2022/08/16 10:15:46;;;;;;;5.93;4.10;;;27.10;59.40;;;;;;4478993;32;20083;-71
2022/08/16 10:18:13;;;;;;;4.25;3.80;;;27.10;59.40;;;;;;4479047;32;20121;-72
2022/08/16 10:20:43;;;;;;;4.53;4.00;;;27.10;59.40;;;;;;4478813;32;20430;-72
2022/08/16 10:23:12;;;;;;;4.65;4.10;;;27.10;59.40;;;;;;4478853;32;20166;-72
2022/08/16 10:25:42;;;;;;;5.28;3.85;;;27.10;59.40;;;;;;4478900;32;20403;-71
2022/08/16 10:28:09;;;;;;;5.18;4.25;;;27.10;59.40;;;;;;4478823;32;20089;-72
2022/08/16 10:30:36;;;;;;;5.25;4.40;;;27.10;59.30;;;;;;4478606;32;20502;-72
2022/08/16 10:33:02;;;;;;;4.70;4.30;;;27.10;59.30;;;;;;4478620;32;20194;-71
2022/08/16 10:35:30;;;;;;;5.22;4.55;;;27.10;59.30;;;;;;4478573;32;20541;-72
2022/08/16 10:37:56;;;;;;;6.53;4.80;;;27.10;59.20;;;;;;4478758;32;20077;-72
2022/08/16 10:40:22;;;;;;;5.90;4.72;;;27.10;59.20;;;;;;4478388;32;20101;-71
2022/08/16 10:42:49;;;;;;;5.47;4.43;;;27.10;59.10;;;;;;4478558;32;20166;-71
2022/08/16 10:45:16;;;;;;;6.45;4.72;;;27.20;59.10;;;;;;4478194;32;20100;-72
2022/08/16 10:47:42;;;;;;;5.45;4.70;;;27.10;58.90;;;;;;4478505;32;20183;-71
2022/08/16 10:50:09;;;;;;;7.90;4.47;;;27.10;58.90;;;;;;4478313;32;20131;-71
2022/08/16 10:52:34;;;;;;;6.47;4.45;;;27.10;58.80;;;;;;4464007;32;20092;-72
2022/08/16 10:55:01;;;;;;;5.45;4.95;;;27.20;58.80;;;;;;4477868;32;20099;-71
2022/08/16 10:57:28;;;;;;;6.88;4.45;;;27.10;58.70;;;;;;4478271;32;20546;-71
2022/08/16 10:59:54;;;;;;;4.90;4.40;;;27.10;58.70;;;;;;4478192;32;20081;-72
2022/08/16 11:02:21;;;;;;;5.07;4.63;;;27.10;58.70;;;;;;4463867;32;20223;-72
2022/08/16 11:04:48;;;;;;;6.85;4.63;;;27.10;58.70;;;;;;4477486;32;20580;-71
2022/08/16 11:07:14;;;;;;;6.75;4.88;;;27.10;58.60;;;;;;4477809;32;20124;-73
2022/08/16 11:09:39;;;;;;;9.32;5.20;;;27.20;58.70;;;;;;4478041;32;20497;-71
2022/08/16 11:12:06;;;;;;;7.57;4.95;;;27.10;58.60;;;;;;4477966;32;20222;-73
2022/08/16 11:14:34;;;;;;;7.72;4.68;;;27.10;58.50;;;;;;4477582;32;20121;-73
2022/08/16 11:17:03;;;;;;;6.05;4.50;;;27.20;58.50;;;;;;4478049;32;20277;-73
2022/08/16 11:19:29;;;;;;;11.13;5.05;;;27.10;58.50;;;;;;4477846;32;20510;-73
2022/08/16 11:21:55;;;;;;;10.93;5.07;;;27.20;58.50;;;;;;4463868;32;20077;-73
2022/08/16 11:24:21;;;;;;;6.13;4.82;;;27.20;58.40;;;;;;4478043;32;20128;-73
2022/08/16 11:26:47;;;;;;;7.95;5.20;;;27.20;58.40;;;;;;4477840;32;20081;-71
2022/08/16 11:29:13;;;;;;;8.10;5.40;;;27.20;58.40;;;;;;4477459;32;20223;-73
2022/08/16 11:31:39;;;;;;;5.90;4.53;;;27.10;58.30;;;;;;4477820;32;20061;-72
2022/08/16 11:34:05;;;;;;;5.57;4.93;;;27.20;58.30;;;;;;4477689;32;20092;-72
2022/08/16 11:36:31;;;;;;;5.65;5.15;;;27.20;58.20;;;;;;4477355;32;20120;-73
2022/08/16 11:38:58;;;;;;;8.70;5.55;;;27.20;58.30;;;;;;4477513;32;20084;-71
2022/08/16 11:41:25;;;;;;;7.68;4.82;;;27.20;58.50;;;;;;4477543;32;20490;-72
2022/08/16 11:43:51;;;;;;;5.45;4.95;;;27.20;58.50;;;;;;4477225;32;20074;-73
2022/08/16 11:46:19;;;;;;;5.43;4.90;;;27.20;58.40;;;;;;4463431;32;20151;-72
2022/08/16 11:48:45;;;;;;;7.28;5.20;;;27.20;58.30;;;;;;4477667;32;20092;-71
2022/08/16 11:51:11;;;;;;;5.85;5.05;;;27.20;58.30;;;;;;4477272;32;20085;-73
2022/08/16 11:53:38;;;;;;;6.63;5.28;;;27.20;58.30;;;;;;4477465;32;20426;-70
2022/08/16 11:56:05;;;;;;;7.57;5.40;;;27.20;58.30;;;;;;4477369;32;20151;-71
2022/08/16 11:58:32;;;;;;;6.68;5.95;;;27.20;58.20;;;;;;4477598;32;20226;-70
2022/08/16 12:00:58;;;;;;;6.13;5.18;;;27.20;58.30;;;;;;4463390;32;20085;-71
2022/08/16 12:03:30;;;;;;;6.80;4.50;;;27.20;58.30;;;;;;4477306;32;20091;-71
2022/08/16 12:05:59;;;;;;;6.55;5.18;;;27.20;58.30;;;;;;4477365;32;20085;-69
2022/08/16 12:08:25;;;;;;;7.68;5.38;;;27.20;58.40;;;;;;4476297;32;20207;-70
2022/08/16 12:10:51;;;;;;;5.60;4.90;;;27.20;58.40;;;;;;4476922;32;20207;-70
2022/08/16 12:13:17;;;;;;;10.85;5.53;;;27.20;58.40;;;;;;4477008;32;20058;-70
2022/08/16 12:15:43;;;;;;;8.35;5.82;;;27.20;58.30;;;;;;4462752;32;20235;-70
2022/08/16 12:18:10;;;;;;;9.75;5.60;;;27.20;58.40;;;;;;4477321;32;20070;-68
2022/08/16 12:20:38;;;;;;;7.18;5.53;;;27.20;58.30;;;;;;4476960;32;20124;-70
2022/08/16 12:23:04;;;;;;;10.07;5.97;;;27.30;58.40;;;;;;4477321;32;20166;-68
2022/08/16 12:25:32;;;;;;;10.20;5.28;;;27.30;58.50;;;;;;4462639;32;20062;-70
2022/08/16 12:27:58;;;;;;;7.47;5.72;;;27.30;58.40;;;;;;4476979;32;20082;-70
2022/08/16 12:30:27;;;;;;;6.47;5.47;;;27.30;58.40;;;;;;4477191;32;20226;-70
2022/08/16 12:32:54;;;;;;;6.18;5.20;;;27.30;58.40;;;;;;4476652;32;20084;-71
2022/08/16 12:35:21;;;;;;;8.00;5.70;;;27.30;58.40;;;;;;4476822;32;20427;-70
2022/08/16 12:37:48;;;;;;;9.57;5.85;;;27.30;58.40;;;;;;4476586;32;20085;-70
2022/08/16 12:40:19;;;;;;;9.55;5.65;;;27.30;58.40;;;;;;4476664;32;20131;-70
2022/08/16 12:42:48;;;;;;;5.53;5.03;;;27.30;58.40;;;;;;4476847;32;20057;-70
2022/08/16 12:45:15;;;;;;;8.52;5.47;;;27.30;58.40;;;;;;4476433;32;20101;-70